sensor_id;sensor_type;location;lat;lon;timestamp;pressure;altitude;pressure_sealevel;temperature;humidity
19510;BME280;9896;42.486;26.506;2023-03-26T00:00:46;99043.03;;;12.66;100.00
19510;BME280;9896;42.486;26.506;2023-03-26T00:03:16;99041.03;;;12.73;100.00
19510;BME280;9896;42.486;26.506;2023-03-26T00:05:43;99034.31;;;12.76;100.00
19510;BME280;9896;42.486;26.506;2023-03-26T00:08:12;99019.00;;;12.76;100.00
19510;BME280;9896;42.486;26.506;2023-03-26T00:10:39;99021.72;;;12.93;100.00
19510;BME280;9896;42.486;26.506;2023-03-26T00:13:06;99010.88;;;12.88;100.00
19510;BME280;9896;42.486;26.506;2023-03-26T00:15:33;99017.78;;;12.84;100.00
19510;BME280;9896;42.486;26.506;2023-03-26T00:17:59;99014.22;;;12.78;100.00
19510;BME280;9896;42.486;26.506;2023-03-26T00:20:29;99030.28;;;12.90;100.00
19510;BME280;9896;42.486;26.506;2023-03-26T00:22:57;99032.66;;;12.86;100.00
19510;BME280;9896;42.486;26.506;2023-03-26T00:25:26;99034.75;;;12.84;100.00
19510;BME280;9896;42.486;26.506;2023-03-26T00:27:51;99032.31;;;12.83;100.00
19510;BME280;9896;42.486;26.506;2023-03-26T00:30:17;99033.09;;;12.67;100.00
19510;BME280;9896;42.486;26.506;2023-03-26T00:32:43;99022.31;;;12.50;100.00
19510;BME280;9896;42.486;26.506;2023-03-26T00:35:09;99017.88;;;12.44;100.00
19510;BME280;9896;42.486;26.506;2023-03-26T00:37:35;99015.44;;;12.42;100.00
19510;BME280;9896;42.486;26.506;2023-03-26T00:40:01;99010.91;;;12.31;100.00
19510;BME280;9896;42.486;26.506;2023-03-26T00:42:31;99020.03;;;12.30;100.00
19510;BME280;9896;42.486;26.506;2023-03-26T00:44:56;98995.41;;;12.22;100.00
19510;BME280;9896;42.486;26.506;2023-03-26T00:47:31;99016.66;;;12.51;100.00
19510;BME280;9896;42.486;26.506;2023-03-26T00:49:57;99013.53;;;12.54;100.00
19510;BME280;9896;42.486;26.506;2023-03-26T00:52:23;98987.00;;;12.46;100.00
19510;BME280;9896;42.486;26.506;2023-03-26T00:54:51;99000.00;;;12.66;100.00
19510;BME280;9896;42.486;26.506;2023-03-26T00:57:18;99004.09;;;12.69;100.00
19510;BME280;9896;42.486;26.506;2023-03-26T00:59:46;98995.69;;;12.65;100.00
19510;BME280;9896;42.486;26.506;2023-03-26T01:02:14;99005.88;;;12.63;100.00
19510;BME280;9896;42.486;26.506;2023-03-26T01:04:49;98992.56;;;12.56;100.00
19510;BME280;9896;42.486;26.506;2023-03-26T01:07:20;99000.63;;;12.56;100.00
19510;BME280;9896;42.486;26.506;2023-03-26T01:09:48;98995.38;;;12.33;100.00
19510;BME280;9896;42.486;26.506;2023-03-26T01:12:19;98998.22;;;12.43;100.00
19510;BME280;9896;42.486;26.506;2023-03-26T01:14:49;98997.31;;;12.66;100.00
19510;BME280;9896;42.486;26.506;2023-03-26T01:17:16;98994.06;;;12.81;100.00
19510;BME280;9896;42.486;26.506;2023-03-26T01:20:12;98997.41;;;12.71;100.00
19510;BME280;9896;42.486;26.506;2023-03-26T01:22:49;99004.41;;;12.72;100.00
19510;BME280;9896;42.486;26.506;2023-03-26T01:25:17;98999.09;;;12.61;100.00
19510;BME280;9896;42.486;26.506;2023-03-26T01:27:47;99005.69;;;12.53;100.00
19510;BME280;9896;42.486;26.506;2023-03-26T01:46:27;98993.66;;;12.72;100.00
19510;BME280;9896;42.486;26.506;2023-03-26T01:48:54;98994.56;;;12.78;100.00
19510;BME280;9896;42.486;26.506;2023-03-26T01:51:34;98991.28;;;12.76;100.00
19510;BME280;9896;42.486;26.506;2023-03-26T01:54:02;98984.84;;;12.77;100.00
19510;BME280;9896;42.486;26.506;2023-03-26T02:02:12;98987.47;;;12.88;96.77
19510;BME280;9896;42.486;26.506;2023-03-26T02:04:56;98992.03;;;13.04;94.59
19510;BME280;9896;42.486;26.506;2023-03-26T02:07:38;98992.88;;;13.05;93.54
19510;BME280;9896;42.486;26.506;2023-03-26T02:12:37;98993.81;;;13.11;91.92
19510;BME280;9896;42.486;26.506;2023-03-26T02:15:04;99001.25;;;13.20;91.54
19510;BME280;9896;42.486;26.506;2023-03-26T02:17:30;99007.50;;;13.26;91.66
19510;BME280;9896;42.486;26.506;2023-03-26T02:19:57;98999.34;;;13.21;90.82
19510;BME280;9896;42.486;26.506;2023-03-26T02:22:22;99005.41;;;13.28;90.33
19510;BME280;9896;42.486;26.506;2023-03-26T02:24:54;99010.03;;;13.32;90.55
19510;BME280;9896;42.486;26.506;2023-03-26T02:27:20;99015.84;;;13.24;91.13
19510;BME280;9896;42.486;26.506;2023-03-26T02:29:46;99013.94;;;13.25;90.42
19510;BME280;9896;42.486;26.506;2023-03-26T02:32:12;99018.13;;;13.32;90.15
19510;BME280;9896;42.486;26.506;2023-03-26T02:34:41;99012.78;;;13.37;89.43
19510;BME280;9896;42.486;26.506;2023-03-26T02:37:08;99019.16;;;13.48;88.37
19510;BME280;9896;42.486;26.506;2023-03-26T02:39:34;99012.16;;;13.47;88.35
19510;BME280;9896;42.486;26.506;2023-03-26T02:42:00;99024.78;;;13.46;88.69
19510;BME280;9896;42.486;26.506;2023-03-26T02:44:26;99017.66;;;13.57;88.07
19510;BME280;9896;42.486;26.506;2023-03-26T02:46:52;99015.78;;;13.58;87.54
19510;BME280;9896;42.486;26.506;2023-03-26T02:49:17;99014.75;;;13.59;86.30
19510;BME280;9896;42.486;26.506;2023-03-26T02:51:43;99020.13;;;13.59;87.27
19510;BME280;9896;42.486;26.506;2023-03-26T02:54:09;99029.03;;;13.59;88.36
19510;BME280;9896;42.486;26.506;2023-03-26T02:56:35;99037.75;;;13.49;88.50
19510;BME280;9896;42.486;26.506;2023-03-26T02:59:01;99046.75;;;13.55;88.42
19510;BME280;9896;42.486;26.506;2023-03-26T03:01:26;99037.03;;;13.37;89.46
19510;BME280;9896;42.486;26.506;2023-03-26T03:03:55;99049.34;;;13.33;90.14
19510;BME280;9896;42.486;26.506;2023-03-26T03:06:20;99050.56;;;13.42;91.10
19510;BME280;9896;42.486;26.506;2023-03-26T03:08:46;99051.22;;;13.33;91.35
19510;BME280;9896;42.486;26.506;2023-03-26T03:11:14;99052.06;;;13.05;94.62
19510;BME280;9896;42.486;26.506;2023-03-26T03:13:40;99059.50;;;12.98;97.21
19510;BME280;9896;42.486;26.506;2023-03-26T03:16:06;99068.19;;;12.60;100.00
19510;BME280;9896;42.486;26.506;2023-03-26T03:18:32;99051.28;;;12.48;100.00
19510;BME280;9896;42.486;26.506;2023-03-26T03:20:57;99057.50;;;12.77;97.96
19510;BME280;9896;42.486;26.506;2023-03-26T03:23:24;99060.03;;;12.83;96.80
19510;BME280;9896;42.486;26.506;2023-03-26T03:25:51;99060.59;;;12.85;97.88
19510;BME280;9896;42.486;26.506;2023-03-26T03:28:17;99059.69;;;12.80;96.97
19510;BME280;9896;42.486;26.506;2023-03-26T03:30:43;99078.06;;;12.83;97.81
19510;BME280;9896;42.486;26.506;2023-03-26T03:33:09;99084.97;;;12.79;98.12
19510;BME280;9896;42.486;26.506;2023-03-26T03:35:34;99085.75;;;12.63;100.00
19510;BME280;9896;42.486;26.506;2023-03-26T03:38:00;99104.00;;;12.49;100.00
19510;BME280;9896;42.486;26.506;2023-03-26T03:40:25;99120.38;;;12.47;100.00
19510;BME280;9896;42.486;26.506;2023-03-26T03:42:51;99132.94;;;12.30;100.00
19510;BME280;9896;42.486;26.506;2023-03-26T03:45:17;99143.78;;;12.24;100.00
19510;BME280;9896;42.486;26.506;2023-03-26T03:47:43;99130.38;;;12.12;100.00
19510;BME280;9896;42.486;26.506;2023-03-26T03:50:09;99125.00;;;12.12;100.00
19510;BME280;9896;42.486;26.506;2023-03-26T03:59:21;99070.47;;;11.00;100.00
19510;BME280;9896;42.486;26.506;2023-03-26T04:01:47;99081.81;;;11.14;100.00
19510;BME280;9896;42.486;26.506;2023-03-26T04:04:15;99077.56;;;10.95;100.00
19510;BME280;9896;42.486;26.506;2023-03-26T04:06:41;99097.75;;;10.97;100.00
19510;BME280;9896;42.486;26.506;2023-03-26T04:12:51;99028.94;;;10.91;100.00
19510;BME280;9896;42.486;26.506;2023-03-26T04:15:30;99059.03;;;11.05;100.00
19510;BME280;9896;42.486;26.506;2023-03-26T04:18:07;99051.78;;;10.94;100.00
19510;BME280;9896;42.486;26.506;2023-03-26T04:20:39;99044.19;;;10.79;100.00
19510;BME280;9896;42.486;26.506;2023-03-26T04:23:06;99063.16;;;10.78;100.00
19510;BME280;9896;42.486;26.506;2023-03-26T04:25:33;99089.19;;;10.89;100.00
19510;BME280;9896;42.486;26.506;2023-03-26T04:28:04;99074.09;;;10.76;100.00
19510;BME280;9896;42.486;26.506;2023-03-26T04:30:32;99108.72;;;10.96;100.00
19510;BME280;9896;42.486;26.506;2023-03-26T04:33:04;99090.34;;;10.81;100.00
19510;BME280;9896;42.486;26.506;2023-03-26T04:35:31;99109.84;;;10.88;100.00
19510;BME280;9896;42.486;26.506;2023-03-26T04:38:01;99105.75;;;10.86;100.00
19510;BME280;9896;42.486;26.506;2023-03-26T04:40:31;99115.47;;;10.98;100.00
19510;BME280;9896;42.486;26.506;2023-03-26T04:43:02;99116.38;;;10.92;100.00
19510;BME280;9896;42.486;26.506;2023-03-26T04:45:28;99148.75;;;11.09;100.00
19510;BME280;9896;42.486;26.506;2023-03-26T04:47:57;99121.81;;;11.04;100.00
19510;BME280;9896;42.486;26.506;2023-03-26T04:50:23;99104.84;;;10.92;100.00
19510;BME280;9896;42.486;26.506;2023-03-26T04:52:49;99113.28;;;11.07;100.00
19510;BME280;9896;42.486;26.506;2023-03-26T04:55:40;99138.09;;;11.32;100.00
19510;BME280;9896;42.486;26.506;2023-03-26T04:58:08;99112.03;;;11.21;100.00
19510;BME280;9896;42.486;26.506;2023-03-26T05:00:34;99104.72;;;11.16;100.00
19510;BME280;9896;42.486;26.506;2023-03-26T05:02:59;99116.38;;;11.22;100.00
19510;BME280;9896;42.486;26.506;2023-03-26T05:05:26;99144.09;;;11.57;100.00
19510;BME280;9896;42.486;26.506;2023-03-26T05:07:53;99104.75;;;11.40;100.00
19510;BME280;9896;42.486;26.506;2023-03-26T05:10:19;99123.78;;;11.50;100.00
19510;BME280;9896;42.486;26.506;2023-03-26T05:12:46;99136.66;;;11.71;100.00
19510;BME280;9896;42.486;26.506;2023-03-26T05:15:12;99162.63;;;11.89;100.00
19510;BME280;9896;42.486;26.506;2023-03-26T05:17:38;99138.75;;;11.69;100.00
19510;BME280;9896;42.486;26.506;2023-03-26T05:20:18;99164.28;;;11.90;100.00
19510;BME280;9896;42.486;26.506;2023-03-26T05:22:45;99172.22;;;11.96;100.00
19510;BME280;9896;42.486;26.506;2023-03-26T05:25:10;99164.84;;;11.92;100.00
19510;BME280;9896;42.486;26.506;2023-03-26T05:27:36;99174.66;;;12.09;100.00
19510;BME280;9896;42.486;26.506;2023-03-26T05:30:03;99145.81;;;11.93;100.00
19510;BME280;9896;42.486;26.506;2023-03-26T05:32:30;99181.91;;;12.21;100.00
19510;BME280;9896;42.486;26.506;2023-03-26T05:34:56;99174.09;;;12.31;100.00
19510;BME280;9896;42.486;26.506;2023-03-26T05:37:21;99157.38;;;11.94;100.00
19510;BME280;9896;42.486;26.506;2023-03-26T05:39:53;99166.13;;;11.78;100.00
19510;BME280;9896;42.486;26.506;2023-03-26T05:42:19;99164.38;;;11.95;100.00
19510;BME280;9896;42.486;26.506;2023-03-26T05:44:45;99175.84;;;12.14;100.00
19510;BME280;9896;42.486;26.506;2023-03-26T05:47:10;99183.41;;;12.17;100.00
19510;BME280;9896;42.486;26.506;2023-03-26T05:49:36;99167.41;;;12.22;100.00
19510;BME280;9896;42.486;26.506;2023-03-26T05:52:01;99180.59;;;12.58;100.00
19510;BME280;9896;42.486;26.506;2023-03-26T05:54:27;99179.03;;;12.74;99.40
19510;BME280;9896;42.486;26.506;2023-03-26T05:56:52;99181.00;;;12.78;100.00
19510;BME280;9896;42.486;26.506;2023-03-26T05:59:18;99185.22;;;12.74;98.58
19510;BME280;9896;42.486;26.506;2023-03-26T06:01:43;99150.19;;;12.57;95.41
19510;BME280;9896;42.486;26.506;2023-03-26T06:04:12;99189.97;;;12.84;95.11
19510;BME280;9896;42.486;26.506;2023-03-26T06:06:40;99192.84;;;13.05;96.44
19510;BME280;9896;42.486;26.506;2023-03-26T06:09:05;99198.94;;;13.01;96.32
19510;BME280;9896;42.486;26.506;2023-03-26T06:11:31;99185.97;;;12.98;100.00
19510;BME280;9896;42.486;26.506;2023-03-26T06:13:57;99193.00;;;12.99;99.58
19510;BME280;9896;42.486;26.506;2023-03-26T06:16:22;99204.75;;;13.10;100.00
19510;BME280;9896;42.486;26.506;2023-03-26T06:18:48;99206.78;;;13.42;97.09
19510;BME280;9896;42.486;26.506;2023-03-26T06:21:16;99218.78;;;13.52;98.50
19510;BME280;9896;42.486;26.506;2023-03-26T06:23:42;99203.16;;;13.37;98.47
19510;BME280;9896;42.486;26.506;2023-03-26T06:26:09;99216.31;;;13.50;98.06
19510;BME280;9896;42.486;26.506;2023-03-26T06:28:36;99232.78;;;13.37;99.67
19510;BME280;9896;42.486;26.506;2023-03-26T06:31:01;99208.66;;;13.14;100.00
19510;BME280;9896;42.486;26.506;2023-03-26T06:33:27;99203.66;;;12.94;100.00
19510;BME280;9896;42.486;26.506;2023-03-26T06:35:53;99213.22;;;13.01;99.68
19510;BME280;9896;42.486;26.506;2023-03-26T06:38:19;99214.97;;;13.08;100.00
19510;BME280;9896;42.486;26.506;2023-03-26T06:40:45;99204.06;;;13.14;98.31
19510;BME280;9896;42.486;26.506;2023-03-26T06:43:10;99210.06;;;13.33;97.09
19510;BME280;9896;42.486;26.506;2023-03-26T06:45:36;99218.69;;;13.46;97.61
19510;BME280;9896;42.486;26.506;2023-03-26T06:48:02;99223.28;;;13.63;95.48
19510;BME280;9896;42.486;26.506;2023-03-26T06:50:27;99211.00;;;13.83;93.17
19510;BME280;9896;42.486;26.506;2023-03-26T06:52:53;99209.44;;;13.87;92.28
19510;BME280;9896;42.486;26.506;2023-03-26T06:55:20;99220.03;;;14.61;87.41
19510;BME280;9896;42.486;26.506;2023-03-26T06:57:50;99211.72;;;15.32;84.56
19510;BME280;9896;42.486;26.506;2023-03-26T07:00:17;99211.16;;;15.52;81.67
19510;BME280;9896;42.486;26.506;2023-03-26T07:02:43;99204.63;;;15.48;79.25
19510;BME280;9896;42.486;26.506;2023-03-26T07:05:09;99216.94;;;15.39;78.64
19510;BME280;9896;42.486;26.506;2023-03-26T07:07:34;99209.56;;;15.83;77.06
19510;BME280;9896;42.486;26.506;2023-03-26T07:10:00;99218.69;;;15.50;75.94
19510;BME280;9896;42.486;26.506;2023-03-26T07:12:25;99214.25;;;15.93;75.19
19510;BME280;9896;42.486;26.506;2023-03-26T07:14:51;99216.31;;;15.86;77.73
19510;BME280;9896;42.486;26.506;2023-03-26T07:17:17;99199.00;;;16.18;75.06
19510;BME280;9896;42.486;26.506;2023-03-26T07:19:42;99214.47;;;16.23;76.76
19510;BME280;9896;42.486;26.506;2023-03-26T07:22:14;99218.97;;;15.27;82.29
19510;BME280;9896;42.486;26.506;2023-03-26T07:24:43;99218.81;;;14.90;78.47
19510;BME280;9896;42.486;26.506;2023-03-26T07:27:22;99205.59;;;15.64;76.29
19510;BME280;9896;42.486;26.506;2023-03-26T07:29:59;99214.19;;;15.88;76.12
19510;BME280;9896;42.486;26.506;2023-03-26T07:33:00;99230.44;;;15.61;75.87
19510;BME280;9896;42.486;26.506;2023-03-26T07:35:31;99215.06;;;15.40;68.34
19510;BME280;9896;42.486;26.506;2023-03-26T07:46:31;99220.63;;;15.06;64.54
19510;BME280;9896;42.486;26.506;2023-03-26T07:49:02;99240.72;;;15.15;65.43
19510;BME280;9896;42.486;26.506;2023-03-26T07:51:29;99240.44;;;15.17;65.28
19510;BME280;9896;42.486;26.506;2023-03-26T07:53:55;99232.41;;;15.00;66.01
19510;BME280;9896;42.486;26.506;2023-03-26T08:07:51;99218.69;;;15.50;58.16
19510;BME280;9896;42.486;26.506;2023-03-26T08:18:45;99210.72;;;15.65;55.90
19510;BME280;9896;42.486;26.506;2023-03-26T08:21:20;99211.38;;;15.72;54.94
19510;BME280;9896;42.486;26.506;2023-03-26T08:26:47;99213.34;;;15.55;53.35
19510;BME280;9896;42.486;26.506;2023-03-26T08:29:58;99214.25;;;15.66;54.35
19510;BME280;9896;42.486;26.506;2023-03-26T08:32:08;99220.13;;;15.90;53.51
19510;BME280;9896;42.486;26.506;2023-03-26T08:34:37;99231.28;;;15.66;54.61
19510;BME280;9896;42.486;26.506;2023-03-26T08:37:03;99222.34;;;15.93;54.90
19510;BME280;9896;42.486;26.506;2023-03-26T08:39:28;99218.47;;;16.15;54.08
19510;BME280;9896;42.486;26.506;2023-03-26T09:05:43;99197.78;;;16.36;50.95
19510;BME280;9896;42.486;26.506;2023-03-26T09:11:43;99207.75;;;16.67;50.56
19510;BME280;9896;42.486;26.506;2023-03-26T09:16:56;99190.84;;;16.55;50.46
19510;BME280;9896;42.486;26.506;2023-03-26T09:25:52;99187.44;;;16.65;49.73
19510;BME280;9896;42.486;26.506;2023-03-26T09:28:43;99192.63;;;16.35;48.18
19510;BME280;9896;42.486;26.506;2023-03-26T09:36:55;99190.50;;;16.37;47.38
19510;BME280;9896;42.486;26.506;2023-03-26T09:50:40;99223.47;;;16.76;42.14
19510;BME280;9896;42.486;26.506;2023-03-26T09:56:32;99221.06;;;16.74;44.29
19510;BME280;9896;42.486;26.506;2023-03-26T10:05:04;99209.50;;;16.94;44.00
19510;BME280;9896;42.486;26.506;2023-03-26T10:10:42;99206.41;;;16.75;43.30
19510;BME280;9896;42.486;26.506;2023-03-26T10:21:45;99203.63;;;17.17;43.75
19510;BME280;9896;42.486;26.506;2023-03-26T10:24:19;99203.53;;;16.92;42.26
19510;BME280;9896;42.486;26.506;2023-03-26T10:41:00;99189.94;;;17.59;38.58
19510;BME280;9896;42.486;26.506;2023-03-26T10:51:45;99196.72;;;17.72;36.72
19510;BME280;9896;42.486;26.506;2023-03-26T10:54:33;99188.31;;;17.73;37.15
19510;BME280;9896;42.486;26.506;2023-03-26T11:00:22;99181.78;;;18.30;35.90
19510;BME280;9896;42.486;26.506;2023-03-26T11:10:54;99186.63;;;18.48;33.72
19510;BME280;9896;42.486;26.506;2023-03-26T11:16:03;99165.22;;;18.31;34.87
19510;BME280;9896;42.486;26.506;2023-03-26T11:21:27;99152.75;;;18.10;35.53
19510;BME280;9896;42.486;26.506;2023-03-26T11:26:50;99177.75;;;18.17;33.29
19510;BME280;9896;42.486;26.506;2023-03-26T11:34:29;99183.72;;;17.89;33.37
19510;BME280;9896;42.486;26.506;2023-03-26T11:37:00;99119.44;;;17.69;33.49
19510;BME280;9896;42.486;26.506;2023-03-26T11:39:32;99153.31;;;18.02;33.06
19510;BME280;9896;42.486;26.506;2023-03-26T11:42:13;99154.41;;;17.91;33.46
19510;BME280;9896;42.486;26.506;2023-03-26T11:44:45;99136.47;;;18.20;33.31
19510;BME280;9896;42.486;26.506;2023-03-26T11:47:14;99154.59;;;18.55;33.22
19510;BME280;9896;42.486;26.506;2023-03-26T11:49:44;99148.63;;;18.48;32.63
19510;BME280;9896;42.486;26.506;2023-03-26T11:52:12;99126.09;;;18.42;32.05
19510;BME280;9896;42.486;26.506;2023-03-26T11:54:39;99128.28;;;18.35;32.59
19510;BME280;9896;42.486;26.506;2023-03-26T11:57:11;99119.16;;;18.01;32.60
19510;BME280;9896;42.486;26.506;2023-03-26T12:00:17;99138.03;;;18.62;32.90
19510;BME280;9896;42.486;26.506;2023-03-26T12:02:46;99123.06;;;18.64;32.23
19510;BME280;9896;42.486;26.506;2023-03-26T12:05:19;99133.09;;;18.74;32.92
19510;BME280;9896;42.486;26.506;2023-03-26T12:07:54;99121.66;;;18.82;32.17
19510;BME280;9896;42.486;26.506;2023-03-26T12:10:38;99120.03;;;18.76;32.52
19510;BME280;9896;42.486;26.506;2023-03-26T12:13:27;99116.97;;;18.87;32.22
19510;BME280;9896;42.486;26.506;2023-03-26T12:15:59;99109.84;;;19.07;32.74
19510;BME280;9896;42.486;26.506;2023-03-26T12:18:26;99094.16;;;19.32;31.81
19510;BME280;9896;42.486;26.506;2023-03-26T12:26:35;99105.28;;;19.36;32.08
19510;BME280;9896;42.486;26.506;2023-03-26T12:29:06;99090.88;;;19.74;31.34
19510;BME280;9896;42.486;26.506;2023-03-26T12:31:45;99107.09;;;19.56;30.64
19510;BME280;9896;42.486;26.506;2023-03-26T12:34:17;99095.97;;;19.81;30.61
19510;BME280;9896;42.486;26.506;2023-03-26T12:36:54;99100.75;;;19.21;31.22
19510;BME280;9896;42.486;26.506;2023-03-26T12:39:33;99088.56;;;19.86;30.01
19510;BME280;9896;42.486;26.506;2023-03-26T12:42:00;99091.38;;;20.05;29.58
19510;BME280;9896;42.486;26.506;2023-03-26T12:44:34;99094.13;;;19.76;28.95
19510;BME280;9896;42.486;26.506;2023-03-26T12:49:47;99092.69;;;19.50;29.25
19510;BME280;9896;42.486;26.506;2023-03-26T12:52:40;99083.47;;;19.80;28.98
19510;BME280;9896;42.486;26.506;2023-03-26T12:58:02;99088.84;;;19.85;28.45
19510;BME280;9896;42.486;26.506;2023-03-26T13:01:12;99084.78;;;19.54;26.61
19510;BME280;9896;42.486;26.506;2023-03-26T13:04:11;99085.69;;;19.73;27.06
19510;BME280;9896;42.486;26.506;2023-03-26T13:07:02;99069.09;;;19.45;26.52
19510;BME280;9896;42.486;26.506;2023-03-26T13:12:40;99070.81;;;19.65;26.57
19510;BME280;9896;42.486;26.506;2023-03-26T13:15:18;99068.94;;;19.89;26.12
19510;BME280;9896;42.486;26.506;2023-03-26T13:20:48;99060.13;;;20.03;25.64
19510;BME280;9896;42.486;26.506;2023-03-26T13:25:47;99053.66;;;19.93;26.03
19510;BME280;9896;42.486;26.506;2023-03-26T13:31:33;99058.31;;;20.46;26.00
19510;BME280;9896;42.486;26.506;2023-03-26T13:45:02;99050.81;;;20.56;24.81
19510;BME280;9896;42.486;26.506;2023-03-26T13:47:34;99047.22;;;20.79;25.05
19510;BME280;9896;42.486;26.506;2023-03-26T13:50:17;99052.75;;;20.74;25.24
19510;BME280;9896;42.486;26.506;2023-03-26T13:52:59;99054.94;;;20.91;24.00
19510;BME280;9896;42.486;26.506;2023-03-26T13:55:45;99039.25;;;20.83;24.48
19510;BME280;9896;42.486;26.506;2023-03-26T13:58:34;99047.09;;;20.90;24.00
19510;BME280;9896;42.486;26.506;2023-03-26T14:01:08;99048.13;;;20.94;23.45
19510;BME280;9896;42.486;26.506;2023-03-26T14:09:21;99042.91;;;20.78;23.82
19510;BME280;9896;42.486;26.506;2023-03-26T14:14:25;99049.22;;;20.74;23.58
19510;BME280;9896;42.486;26.506;2023-03-26T14:16:58;99039.00;;;21.22;23.78
19510;BME280;9896;42.486;26.506;2023-03-26T14:19:50;99040.97;;;21.35;23.16
19510;BME280;9896;42.486;26.506;2023-03-26T14:31:21;99055.22;;;22.24;22.50
19510;BME280;9896;42.486;26.506;2023-03-26T14:48:36;99026.75;;;21.84;22.77
19510;BME280;9896;42.486;26.506;2023-03-26T14:53:59;99033.09;;;21.79;22.21
19510;BME280;9896;42.486;26.506;2023-03-26T14:56:47;99037.44;;;21.35;23.13
19510;BME280;9896;42.486;26.506;2023-03-26T14:59:34;99041.53;;;22.10;22.07
19510;BME280;9896;42.486;26.506;2023-03-26T15:30:21;99033.69;;;20.93;23.01
19510;BME280;9896;42.486;26.506;2023-03-26T15:42:01;99043.44;;;21.50;23.69
19510;BME280;9896;42.486;26.506;2023-03-26T15:55:39;99052.59;;;20.84;24.85
19510;BME280;9896;42.486;26.506;2023-03-26T15:58:13;99052.97;;;20.97;24.34
19510;BME280;9896;42.486;26.506;2023-03-26T16:00:53;99064.97;;;20.96;24.63
19510;BME280;9896;42.486;26.506;2023-03-26T16:03:41;99063.38;;;21.13;25.02
19510;BME280;9896;42.486;26.506;2023-03-26T16:06:29;99062.56;;;20.94;25.25
19510;BME280;9896;42.486;26.506;2023-03-26T16:11:53;99063.28;;;20.38;25.89
19510;BME280;9896;42.486;26.506;2023-03-26T16:14:42;99070.19;;;19.73;27.29
19510;BME280;9896;42.486;26.506;2023-03-26T16:17:19;99074.69;;;19.20;27.83
19510;BME280;9896;42.486;26.506;2023-03-26T16:25:27;99085.19;;;18.88;29.14
19510;BME280;9896;42.486;26.506;2023-03-26T16:30:36;99075.72;;;18.16;30.18
19510;BME280;9896;42.486;26.506;2023-03-26T16:33:15;99083.13;;;17.75;31.25
19510;BME280;9896;42.486;26.506;2023-03-26T16:38:14;99081.47;;;17.24;32.22
19510;BME280;9896;42.486;26.506;2023-03-26T16:40:53;99081.16;;;17.20;31.87
19510;BME280;9896;42.486;26.506;2023-03-26T16:43:54;99080.63;;;17.13;31.86
19510;BME280;9896;42.486;26.506;2023-03-26T16:46:35;99083.03;;;16.94;30.95
19510;BME280;9896;42.486;26.506;2023-03-26T16:49:16;99086.59;;;17.10;31.44
19510;BME280;9896;42.486;26.506;2023-03-26T16:54:42;99087.59;;;16.84;31.45
19510;BME280;9896;42.486;26.506;2023-03-26T16:57:51;99100.91;;;16.95;31.22
19510;BME280;9896;42.486;26.506;2023-03-26T17:06:03;99110.34;;;16.88;31.16
19510;BME280;9896;42.486;26.506;2023-03-26T17:11:24;99112.28;;;16.30;32.82
19510;BME280;9896;42.486;26.506;2023-03-26T17:16:51;99124.38;;;16.22;34.43
19510;BME280;9896;42.486;26.506;2023-03-26T17:20:03;99129.78;;;16.17;31.41
19510;BME280;9896;42.486;26.506;2023-03-26T17:22:47;99125.47;;;16.26;30.35
19510;BME280;9896;42.486;26.506;2023-03-26T17:25:33;99145.34;;;16.42;29.54
19510;BME280;9896;42.486;26.506;2023-03-26T17:28:28;99150.44;;;16.34;30.30
19510;BME280;9896;42.486;26.506;2023-03-26T17:37:04;99172.47;;;15.78;33.26
19510;BME280;9896;42.486;26.506;2023-03-26T17:42:16;99170.84;;;15.77;30.61
19510;BME280;9896;42.486;26.506;2023-03-26T17:44:48;99179.47;;;15.74;30.84
19510;BME280;9896;42.486;26.506;2023-03-26T17:47:25;99173.06;;;15.54;31.17
19510;BME280;9896;42.486;26.506;2023-03-26T17:50:10;99183.19;;;15.42;32.46
19510;BME280;9896;42.486;26.506;2023-03-26T17:52:48;99180.34;;;15.26;33.82
19510;BME280;9896;42.486;26.506;2023-03-26T17:55:21;99190.91;;;15.06;34.92
19510;BME280;9896;42.486;26.506;2023-03-26T17:58:06;99195.56;;;14.89;35.87
19510;BME280;9896;42.486;26.506;2023-03-26T18:00:42;99192.13;;;14.94;35.18
19510;BME280;9896;42.486;26.506;2023-03-26T18:05:46;99185.72;;;14.78;35.63
19510;BME280;9896;42.486;26.506;2023-03-26T18:08:33;99182.06;;;14.67;36.26
19510;BME280;9896;42.486;26.506;2023-03-26T18:17:03;99195.06;;;14.15;37.67
19510;BME280;9896;42.486;26.506;2023-03-26T18:19:45;99199.16;;;14.01;38.05
19510;BME280;9896;42.486;26.506;2023-03-26T18:22:16;99210.91;;;13.95;37.92
19510;BME280;9896;42.486;26.506;2023-03-26T18:24:43;99209.44;;;13.87;37.61
19510;BME280;9896;42.486;26.506;2023-03-26T18:29:42;99209.03;;;13.95;37.48
19510;BME280;9896;42.486;26.506;2023-03-26T18:34:35;99200.53;;;13.70;38.04
19510;BME280;9896;42.486;26.506;2023-03-26T18:40:00;99204.03;;;13.71;37.86
19510;BME280;9896;42.486;26.506;2023-03-26T18:42:27;99194.88;;;13.55;38.42
19510;BME280;9896;42.486;26.506;2023-03-26T18:44:55;99206.31;;;13.62;38.21
19510;BME280;9896;42.486;26.506;2023-03-26T18:47:21;99200.38;;;13.60;38.08
19510;BME280;9896;42.486;26.506;2023-03-26T18:49:50;99205.50;;;13.62;38.63
19510;BME280;9896;42.486;26.506;2023-03-26T18:52:18;99202.78;;;13.62;38.63
19510;BME280;9896;42.486;26.506;2023-03-26T18:54:49;99205.06;;;13.36;39.92
19510;BME280;9896;42.486;26.506;2023-03-26T18:57:24;99190.28;;;13.39;39.35
19510;BME280;9896;42.486;26.506;2023-03-26T18:59:52;99192.38;;;13.20;41.56
19510;BME280;9896;42.486;26.506;2023-03-26T19:02:19;99190.88;;;13.01;45.06
19510;BME280;9896;42.486;26.506;2023-03-26T19:04:47;99187.66;;;12.87;45.31
19510;BME280;9896;42.486;26.506;2023-03-26T19:07:21;99190.63;;;13.14;45.29
19510;BME280;9896;42.486;26.506;2023-03-26T19:09:48;99192.06;;;12.93;41.81
19510;BME280;9896;42.486;26.506;2023-03-26T19:15:09;99191.47;;;12.40;49.04
19510;BME280;9896;42.486;26.506;2023-03-26T19:17:41;99199.88;;;12.43;47.05
19510;BME280;9896;42.486;26.506;2023-03-26T19:20:20;99204.56;;;12.36;49.18